Time;durP1;ratioP1;P1;durP2;ratioP2;P2;SDS_P1;SDS_P2;PMS_P1;PMS_P2;Temp;Humidity;BMP_temperature;BMP_pressure;BME280_temperature;BME280_humidity;BME280_pressure;Samples;Min_cycle;Max_cycle;Signal;HPM_P1;HPM_P2
2022/08/08 00:02:25;;;;;;;3.33;2.80;;;;;;;11.74;91.79;102310.03;4994854;28;20184;-51
2022/08/08 00:05:03;;;;;;;4.22;3.00;;;;;;;11.75;90.96;102308.22;4981915;28;20210;-51
2022/08/08 00:07:42;;;;;;;4.25;3.25;;;;;;;11.66;90.77;102305.72;4995357;28;20652;-53
2022/08/08 00:10:16;;;;;;;3.28;2.83;;;;;;;11.73;90.62;102304.69;4995253;28;20531;-51
2022/08/08 00:13:01;;;;;;;3.35;3.08;;;;;;;11.73;90.72;102302.88;4994414;28;20193;-51
2022/08/08 00:15:40;;;;;;;3.78;3.30;;;;;;;11.51;90.88;102315.81;4994929;28;20538;-51
2022/08/08 00:18:41;;;;;;;6.68;3.30;;;;;;;11.29;91.87;102319.81;4995154;28;20162;-51
2022/08/08 00:21:13;;;;;;;3.90;3.50;;;;;;;11.26;93.34;102319.84;4986582;28;20221;-51
2022/08/08 00:23:49;;;;;;;3.83;3.10;;;;;;;11.34;93.92;102320.59;4994583;28;20201;-51
2022/08/08 00:26:28;;;;;;;3.50;2.90;;;;;;;11.40;93.77;102316.94;4994212;28;20161;-50
2022/08/08 00:29:03;;;;;;;3.25;2.95;;;;;;;11.44;93.74;102322.22;4993694;28;20177;-52
2022/08/08 00:31:34;;;;;;;4.00;3.50;;;;;;;11.39;93.41;102315.16;4994287;28;20595;-52
2022/08/08 00:37:30;;;;;;;4.65;3.20;;;;;;;11.46;93.15;102311.47;4994530;28;20174;-51
2022/08/08 00:40:23;;;;;;;3.03;2.72;;;;;;;11.44;92.61;102321.34;4993192;28;20265;-49
2022/08/08 00:43:13;;;;;;;3.90;3.25;;;;;;;11.43;92.38;102314.19;4992971;28;20196;-50
2022/08/08 00:46:08;;;;;;;4.53;3.30;;;;;;;11.28;92.38;102315.34;4992985;28;20231;-50
2022/08/08 00:48:53;;;;;;;3.15;2.63;;;;;;;11.35;92.66;102314.34;4992679;28;20183;-52
2022/08/08 00:51:55;;;;;;;3.15;2.83;;;;;;;11.37;92.81;102309.84;4994508;28;20582;-50
2022/08/08 00:54:39;;;;;;;3.40;3.10;;;;;;;11.25;92.70;102313.59;4993662;28;20213;-53
2022/08/08 00:57:26;;;;;;;4.35;3.25;;;;;;;11.06;93.09;102313.03;4994242;28;20574;-49
2022/08/08 01:00:02;;;;;;;4.07;3.35;;;;;;;10.96;94.31;102316.78;4992568;28;20197;-50
2022/08/08 01:02:51;;;;;;;4.95;3.65;;;;;;;10.74;95.46;102310.00;4992566;28;20212;-50
2022/08/08 01:05:37;;;;;;;3.50;3.20;;;;;;;10.94;96.15;102313.22;4992085;28;20180;-52
2022/08/08 01:08:34;;;;;;;3.97;3.47;;;;;;;10.96;96.17;102318.59;4992823;28;20209;-51
2022/08/08 01:11:15;;;;;;;3.90;3.53;;;;;;;10.86;96.05;102315.13;4991359;28;20587;-51
2022/08/08 01:14:23;;;;;;;7.85;3.63;;;;;;;10.87;96.01;102311.56;4992143;28;20196;-51
2022/08/08 01:16:52;;;;;;;3.72;3.30;;;;;;;10.87;96.06;102317.81;4992596;28;20189;-50
2022/08/08 01:19:52;;;;;;;4.05;3.58;;;;;;;10.70;96.25;102315.38;4992194;28;20202;-50
2022/08/08 01:22:47;;;;;;;3.60;3.40;;;;;;;10.79;96.78;102313.47;4991944;28;20248;-51
2022/08/08 01:25:45;;;;;;;5.22;3.42;;;;;;;10.85;96.76;102318.75;4984565;28;20188;-53
2022/08/08 01:28:42;;;;;;;4.10;3.70;;;;;;;10.86;96.39;102323.19;4972570;28;20189;-53
2022/08/08 01:31:53;;;;;;;3.80;3.20;;;;;;;10.77;95.86;102313.47;4972849;28;20562;-53
2022/08/08 01:34:24;;;;;;;4.07;3.25;;;;;;;10.90;96.21;102317.75;4973103;28;20272;-53
2022/08/08 01:37:07;;;;;;;4.25;3.40;;;;;;;10.91;96.09;102311.50;4981858;28;20743;-52
2022/08/08 01:39:58;;;;;;;3.70;3.25;;;;;;;10.97;95.89;102312.28;4992024;28;20205;-52
2022/08/08 01:42:48;;;;;;;3.38;3.08;;;;;;;10.97;95.63;102313.16;4991489;28;20216;-53
2022/08/08 01:46:02;;;;;;;4.05;3.22;;;;;;;10.91;95.96;102316.84;4991308;28;20629;-52
2022/08/08 01:48:53;;;;;;;4.07;3.70;;;;;;;10.89;96.28;102320.47;4974753;28;20196;-52
2022/08/08 01:51:50;;;;;;;3.40;3.13;;;;;;;11.00;96.43;102317.59;4991508;28;20182;-52
2022/08/08 01:54:53;;;;;;;3.65;3.35;;;;;;;11.08;96.11;102326.41;4991704;28;20181;-51
2022/08/08 01:57:30;;;;;;;5.13;3.55;;;;;;;11.12;96.23;102318.28;4991634;28;20356;-51
2022/08/08 02:00:18;;;;;;;5.80;3.60;;;;;;;11.00;96.08;102310.47;4991811;28;20221;-52
2022/08/08 02:03:23;;;;;;;4.07;3.65;;;;;;;11.06;96.69;102314.81;4991443;28;20208;-53
2022/08/08 02:06:06;;;;;;;4.88;3.90;;;;;;;10.99;96.97;102316.72;4991949;28;20177;-51
2022/08/08 02:09:14;;;;;;;8.20;4.05;;;;;;;11.07;97.45;102319.28;4991509;28;21167;-52
2022/08/08 02:11:45;;;;;;;4.68;3.75;;;;;;;11.13;97.73;102312.03;4983493;28;20203;-51
2022/08/08 02:14:48;;;;;;;4.40;3.60;;;;;;;11.15;97.64;102314.69;4974857;28;20564;-51
2022/08/08 02:17:25;;;;;;;5.25;3.70;;;;;;;11.16;97.72;102326.31;4991143;28;20189;-51
2022/08/08 02:20:06;;;;;;;7.75;4.40;;;;;;;11.07;97.66;102317.47;4990656;28;20205;-54
2022/08/08 02:23:07;;;;;;;4.60;3.90;;;;;;;11.09;97.69;102315.66;4992410;28;20208;-53
2022/08/08 02:25:56;;;;;;;3.60;3.30;;;;;;;11.11;97.65;102321.88;4991115;28;20169;-52
2022/08/08 02:29:01;;;;;;;3.80;3.40;;;;;;;11.21;97.72;102316.38;4981258;28;20220;-51
2022/08/08 02:31:44;;;;;;;3.50;3.20;;;;;;;11.24;97.71;102322.56;4993041;28;20188;-53
2022/08/08 02:34:57;;;;;;;3.70;3.40;;;;;;;11.19;97.29;102323.56;4990794;28;20723;-51
2022/08/08 02:37:34;;;;;;;4.68;3.58;;;;;;;11.08;97.61;102327.28;4981912;28;20251;-53
2022/08/08 02:40:15;;;;;;;3.97;3.35;;;;;;;11.07;97.75;102321.97;4991071;28;20212;-51
2022/08/08 02:43:00;;;;;;;4.68;3.40;;;;;;;11.03;97.87;102323.81;4990534;28;20212;-53
2022/08/08 02:45:40;;;;;;;4.20;3.80;;;;;;;11.07;97.90;102317.47;4990613;28;20185;-51
2022/08/08 02:48:24;;;;;;;5.10;3.95;;;;;;;11.07;97.20;102320.16;4990962;28;20673;-51
2022/08/08 02:51:02;;;;;;;3.97;3.60;;;;;;;10.96;97.33;102319.47;4992209;28;20173;-50
2022/08/08 02:53:36;;;;;;;4.25;3.65;;;;;;;10.99;97.46;102331.94;4990218;28;20197;-54
2022/08/08 02:56:21;;;;;;;4.03;3.63;;;;;;;11.02;97.34;102329.19;4990581;28;20177;-51
2022/08/08 02:58:52;;;;;;;4.05;3.30;;;;;;;10.84;97.14;102335.72;4990581;28;20181;-55
2022/08/08 03:01:39;;;;;;;5.32;3.33;;;;;;;10.72;97.54;102340.38;4974697;28;20719;-53
2022/08/08 03:04:35;;;;;;;4.28;3.90;;;;;;;10.75;98.14;102334.06;4990407;28;20185;-54
2022/08/08 03:07:23;;;;;;;4.55;3.65;;;;;;;10.76;98.09;102325.13;4991848;28;20181;-54
2022/08/08 03:10:01;;;;;;;3.92;3.63;;;;;;;10.81;98.38;102338.47;4991784;28;20189;-53
2022/08/08 03:12:42;;;;;;;4.82;4.10;;;;;;;10.75;97.98;102336.75;4990353;28;20231;-56
2022/08/08 03:15:30;;;;;;;4.45;3.63;;;;;;;10.71;98.10;102327.88;4985164;28;20185;-54
2022/08/08 03:18:06;;;;;;;5.82;4.13;;;;;;;10.70;98.13;102338.63;4990239;28;20204;-56
2022/08/08 03:20:46;;;;;;;3.63;3.30;;;;;;;10.67;98.04;102339.56;4974313;28;20205;-54
2022/08/08 03:23:14;;;;;;;3.35;3.15;;;;;;;10.70;98.26;102343.97;4989977;28;20553;-55
2022/08/08 03:25:41;;;;;;;3.67;3.30;;;;;;;10.69;98.27;102334.16;4977418;28;20193;-54
2022/08/08 03:28:40;;;;;;;3.80;3.50;;;;;;;10.78;98.23;102343.84;4971014;28;20201;-55
2022/08/08 03:33:52;;;;;;;3.60;3.30;;;;;;;10.74;97.77;102335.00;4969678;28;20225;-55
2022/08/08 03:36:18;;;;;;;4.97;4.32;;;;;;;10.59;97.84;102337.91;4975723;28;20591;-53
2022/08/08 03:38:49;;;;;;;3.80;3.50;;;;;;;10.64;98.04;102344.94;4969358;28;20174;-52
2022/08/08 03:41:15;;;;;;;3.70;3.40;;;;;;;10.70;98.18;102343.97;4969766;28;20516;-54
2022/08/08 03:43:41;;;;;;;4.35;3.80;;;;;;;10.68;98.08;102333.28;4971267;28;20198;-53
2022/08/08 03:46:06;;;;;;;3.90;3.40;;;;;;;10.64;98.24;102341.38;4969917;28;20216;-52
2022/08/08 03:48:33;;;;;;;4.20;3.80;;;;;;;10.65;98.24;102353.91;4970016;28;20212;-52
2022/08/08 03:51:05;;;;;;;3.78;3.47;;;;;;;10.65;98.44;102352.09;4969992;28;20549;-50
2022/08/08 03:53:35;;;;;;;5.38;3.50;;;;;;;10.68;98.18;102352.03;4968977;28;20202;-53
2022/08/08 03:56:01;;;;;;;4.63;3.50;;;;;;;10.74;98.34;102352.88;4969940;28;20630;-48
2022/08/08 03:58:29;;;;;;;4.10;3.78;;;;;;;10.66;98.08;102356.53;4969801;28;20664;-49
2022/08/08 04:01:05;;;;;;;8.65;4.35;;;;;;;10.54;98.17;102362.09;4969799;28;20201;-49
2022/08/08 04:03:37;;;;;;;4.95;4.03;;;;;;;10.48;98.45;102360.34;4986537;28;20201;-47
2022/08/08 04:06:05;;;;;;;6.18;3.95;;;;;;;10.48;98.88;102354.13;4988958;28;20627;-48
2022/08/08 04:08:35;;;;;;;3.88;3.58;;;;;;;10.42;99.29;102357.75;4989243;28;20172;-49
2022/08/08 04:11:05;;;;;;;4.88;3.97;;;;;;;10.31;99.80;102354.31;4988827;28;20463;-49
2022/08/08 04:13:31;;;;;;;6.07;4.70;;;;;;;10.26;100.00;102362.41;4988686;28;20197;-49
2022/08/08 04:16:00;;;;;;;5.78;4.20;;;;;;;10.26;100.00;102359.72;4988769;28;20185;-48
2022/08/08 04:18:26;;;;;;;4.30;3.90;;;;;;;10.42;100.00;102360.44;4989074;28;20316;-49
2022/08/08 04:20:52;;;;;;;4.65;3.75;;;;;;;10.55;100.00;102365.63;4988670;28;20209;-48
2022/08/08 04:23:17;;;;;;;5.32;4.25;;;;;;;10.37;100.00;102369.44;4989579;28;20189;-50
2022/08/08 04:25:44;;;;;;;5.05;4.18;;;;;;;10.39;100.00;102375.69;4989520;28;20235;-49
2022/08/08 04:28:10;;;;;;;4.20;3.90;;;;;;;10.39;100.00;102364.97;4990576;28;20189;-48
2022/08/08 04:30:36;;;;;;;5.53;4.07;;;;;;;10.40;100.00;102369.41;4989335;28;20170;-49
2022/08/08 04:33:02;;;;;;;5.60;4.03;;;;;;;10.41;100.00;102371.19;4988098;28;20200;-50
2022/08/08 04:35:30;;;;;;;4.40;4.00;;;;;;;10.47;100.00;102363.03;4988772;28;20180;-51
2022/08/08 04:37:56;;;;;;;4.95;4.00;;;;;;;10.57;100.00;102363.84;4989214;28;20561;-49
2022/08/08 04:40:29;;;;;;;4.20;3.88;;;;;;;10.62;100.00;102372.69;4989002;28;20212;-50
2022/08/08 04:42:56;;;;;;;4.20;3.80;;;;;;;10.61;100.00;102366.44;4988881;28;20205;-50
2022/08/08 04:45:26;;;;;;;4.93;4.47;;;;;;;10.63;100.00;102369.13;4989671;28;20609;-51
2022/08/08 04:47:55;;;;;;;5.35;4.20;;;;;;;10.62;100.00;102368.19;4992709;28;20181;-50
2022/08/08 04:50:21;;;;;;;4.82;3.95;;;;;;;10.68;100.00;102368.13;4992694;28;20162;-49
2022/08/08 04:52:47;;;;;;;4.47;4.07;;;;;;;10.76;100.00;102356.38;4992458;28;20185;-51
2022/08/08 04:55:16;;;;;;;5.47;4.50;;;;;;;10.88;100.00;102367.81;4992038;28;20715;-51
2022/08/08 04:57:42;;;;;;;4.68;4.25;;;;;;;11.15;100.00;102368.34;4993814;28;20158;-51
2022/08/08 05:00:08;;;;;;;5.05;4.43;;;;;;;11.37;100.00;102367.97;4992605;28;20216;-50
2022/08/08 05:02:34;;;;;;;5.57;4.35;;;;;;;11.64;100.00;102355.88;4991853;28;20201;-51
2022/08/08 05:05:00;;;;;;;4.45;4.05;;;;;;;11.87;99.29;102356.34;4992265;28;20679;-50
2022/08/08 05:07:28;;;;;;;6.25;3.80;;;;;;;12.11;98.71;102356.78;4992178;28;20268;-51
2022/08/08 05:09:54;;;;;;;4.28;3.85;;;;;;;12.27;97.85;102355.56;4992252;28;20273;-50
2022/08/08 05:12:20;;;;;;;5.20;3.45;;;;;;;12.18;96.87;102358.44;4992265;28;20732;-51
2022/08/08 05:14:46;;;;;;;3.80;3.50;;;;;;;12.34;96.28;102357.19;4991562;28;20277;-51
2022/08/08 05:17:12;;;;;;;5.80;3.80;;;;;;;12.53;95.66;102359.50;4992342;28;20747;-49
2022/08/08 05:19:37;;;;;;;4.40;3.83;;;;;;;12.69;95.06;102362.75;4993150;28;20212;-50
2022/08/08 05:22:06;;;;;;;5.50;3.55;;;;;;;12.75;94.85;102358.09;4993222;28;20193;-49
2022/08/08 05:24:32;;;;;;;3.75;3.45;;;;;;;12.56;94.23;102370.19;4992339;28;20181;-43
2022/08/08 05:26:58;;;;;;;4.82;3.65;;;;;;;12.75;94.55;102366.16;4993228;28;20188;-45
2022/08/08 05:29:25;;;;;;;3.95;3.40;;;;;;;12.93;94.40;102363.97;4992291;28;20570;-45
2022/08/08 05:31:51;;;;;;;3.45;3.15;;;;;;;13.12;93.98;102373.38;4991907;28;20220;-50
2022/08/08 05:34:24;;;;;;;5.25;4.45;;;;;;;13.29;93.56;102367.59;4991949;28;20630;-46
2022/08/08 05:36:52;;;;;;;3.63;3.33;;;;;;;13.49;93.44;102374.28;4991932;28;20273;-45
2022/08/08 05:39:21;;;;;;;9.02;3.88;;;;;;;13.68;93.36;102361.25;4991674;28;20213;-49
2022/08/08 05:41:50;;;;;;;4.45;3.50;;;;;;;13.77;92.71;102371.75;4992060;28;20212;-45
2022/08/08 05:44:23;;;;;;;7.85;3.47;;;;;;;13.79;92.40;102367.22;4991571;28;20184;-47
2022/08/08 05:46:54;;;;;;;3.67;3.33;;;;;;;13.91;92.13;102364.19;4991918;28;20177;-45
2022/08/08 05:49:20;;;;;;;7.13;3.30;;;;;;;14.06;92.26;102370.97;4971859;28;20185;-48
2022/08/08 05:51:47;;;;;;;3.55;3.25;;;;;;;14.36;92.06;102368.31;4976134;28;20201;-47
2022/08/08 05:54:13;;;;;;;5.40;3.35;;;;;;;14.77;91.87;102377.88;4992011;28;20169;-46
2022/08/08 05:56:41;;;;;;;4.72;3.38;;;;;;;15.11;91.03;102376.84;4991959;28;20549;-49
2022/08/08 05:59:23;;;;;;;5.22;2.95;;;;;;;15.53;89.98;102367.34;4992012;28;20172;-48
2022/08/08 06:01:55;;;;;;;8.65;3.70;;;;;;;15.64;88.40;102374.13;4993444;28;20197;-47
2022/08/08 06:04:28;;;;;;;4.47;3.40;;;;;;;15.91;87.00;102384.06;4991929;28;20524;-46
2022/08/08 06:07:02;;;;;;;3.38;3.13;;;;;;;15.89;86.36;102375.13;4991930;28;20626;-49
2022/08/08 06:09:32;;;;;;;3.17;2.97;;;;;;;16.37;85.67;102375.13;4992259;28;20170;-46
2022/08/08 06:12:00;;;;;;;6.15;3.50;;;;;;;16.26;83.82;102367.41;4991576;28;20198;-46
2022/08/08 06:14:28;;;;;;;7.32;3.58;;;;;;;16.68;83.57;102382.06;4992006;28;20212;-49
2022/08/08 06:16:59;;;;;;;7.88;3.28;;;;;;;16.95;81.46;102379.25;4991711;28;20276;-47
2022/08/08 06:19:37;;;;;;;7.45;3.42;;;;;;;17.40;80.35;102368.31;4991814;28;20205;-45
2022/08/08 06:22:02;;;;;;;6.05;3.60;;;;;;;17.81;79.44;102364.78;4992989;28;20596;-45
2022/08/08 06:24:37;;;;;;;8.65;3.45;;;;;;;17.93;77.57;102361.59;4991802;28;20191;-49
2022/08/08 06:27:08;;;;;;;6.53;2.80;;;;;;;17.97;77.40;102367.72;4991512;28;20272;-48
2022/08/08 06:29:42;;;;;;;4.15;2.92;;;;;;;18.00;76.90;102381.16;4991512;28;20158;-48
2022/08/08 06:32:14;;;;;;;6.35;2.97;;;;;;;18.45;77.06;102378.16;4991542;28;20201;-45
2022/08/08 06:34:45;;;;;;;6.35;2.67;;;;;;;17.98;75.89;102375.81;4991323;28;20240;-46
2022/08/08 06:37:13;;;;;;;5.68;2.33;;;;;;;18.38;76.35;102387.53;4992654;28;20196;-50
2022/08/08 06:39:49;;;;;;;5.13;2.20;;;;;;;18.41;76.86;102394.66;4991408;28;20196;-47
2022/08/08 06:42:17;;;;;;;5.22;2.15;;;;;;;18.67;75.60;102394.34;4991038;28;20276;-44
2022/08/08 06:44:48;;;;;;;4.57;2.10;;;;;;;18.88;74.25;102394.28;4991836;28;20180;-45
2022/08/08 06:47:14;;;;;;;5.20;1.98;;;;;;;18.80;74.41;102394.66;4992544;28;20169;-45
2022/08/08 06:49:41;;;;;;;3.65;1.90;;;;;;;19.37;74.26;102400.00;4991511;28;20247;-46
2022/08/08 06:52:06;;;;;;;4.57;2.40;;;;;;;19.46;72.16;102398.66;4990925;28;20197;-49
2022/08/08 06:54:34;;;;;;;4.85;2.25;;;;;;;18.99;72.78;102402.78;4991114;28;20182;-48
2022/08/08 06:57:00;;;;;;;5.07;1.88;;;;;;;19.78;72.09;102393.47;4991462;28;20174;-44
2022/08/08 06:59:27;;;;;;;3.35;1.50;;;;;;;20.33;70.42;102388.69;4990759;28;20304;-43
2022/08/08 07:02:02;;;;;;;4.97;1.98;;;;;;;20.38;69.74;102392.03;4991176;28;20197;-46
2022/08/08 07:04:35;;;;;;;5.10;1.98;;;;;;;20.62;67.97;102394.41;4990738;28;20174;-44
2022/08/08 07:07:02;;;;;;;3.75;1.42;;;;;;;20.57;67.21;102391.03;4978524;28;20244;-47
2022/08/08 07:09:37;;;;;;;3.13;1.73;;;;;;;20.44;67.82;102389.91;4990110;28;20169;-46
2022/08/08 07:12:07;;;;;;;3.00;1.75;;;;;;;20.66;67.47;102401.44;4992087;28;20193;-45
2022/08/08 07:14:41;;;;;;;5.00;1.77;;;;;;;20.38;67.90;102394.75;4990739;28;20694;-46
2022/08/08 07:17:16;;;;;;;4.60;1.73;;;;;;;20.31;67.56;102401.50;4990747;28;20633;-42
2022/08/08 07:20:03;;;;;;;6.85;1.63;;;;;;;20.81;66.50;102399.69;4990490;28;20228;-45
2022/08/08 07:22:42;;;;;;;11.88;1.98;;;;;;;20.44;67.74;102409.84;4991759;28;20260;-44
2022/08/08 07:25:10;;;;;;;4.57;2.17;;;;;;;20.38;68.10;102407.50;4990882;28;20192;-44
2022/08/08 07:27:40;;;;;;;3.97;1.80;;;;;;;20.87;66.74;102410.22;4990612;28;20188;-49
2022/08/08 07:30:06;;;;;;;6.00;2.00;;;;;;;21.06;66.13;102412.78;4992294;28;20154;-48
2022/08/08 07:32:38;;;;;;;5.88;1.60;;;;;;;20.60;65.68;102403.59;4991881;28;20581;-43
2022/08/08 07:35:05;;;;;;;4.95;1.50;;;;;;;20.99;64.87;102414.13;4991590;28;20584;-48
2022/08/08 07:37:35;;;;;;;4.10;1.70;;;;;;;21.46;64.23;102406.91;4990712;28;20536;-46
2022/08/08 07:40:02;;;;;;;5.63;1.67;;;;;;;21.44;63.97;102406.13;4990300;28;20208;-43
2022/08/08 07:42:31;;;;;;;8.82;1.92;;;;;;;21.40;63.31;102417.16;4990312;28;20196;-46
2022/08/08 07:44:57;;;;;;;2.83;1.60;;;;;;;21.31;62.68;102416.81;4990260;28;20235;-44
2022/08/08 07:47:23;;;;;;;3.85;1.40;;;;;;;21.58;62.48;102414.34;4990433;28;20177;-45
2022/08/08 07:49:48;;;;;;;4.32;1.70;;;;;;;21.05;62.63;102411.03;4991634;28;20664;-47
2022/08/08 07:52:16;;;;;;;6.47;1.75;;;;;;;20.86;63.42;102419.38;4989848;28;20743;-49
2022/08/08 07:55:12;;;;;;;4.22;1.42;;;;;;;20.35;63.98;102416.69;4988252;28;20328;-47
2022/08/08 07:57:53;;;;;;;4.38;1.60;;;;;;;20.55;64.74;102421.06;4988248;28;20633;-48
2022/08/08 08:00:27;;;;;;;5.80;1.40;;;;;;;20.45;65.70;102421.66;4988161;28;20644;-51
2022/08/08 08:03:06;;;;;;;5.85;1.98;;;;;;;20.74;64.58;102418.22;4988331;28;20594;-51
2022/08/08 08:05:37;;;;;;;4.68;1.70;;;;;;;21.02;63.72;102418.50;4989177;28;20185;-49
2022/08/08 08:08:14;;;;;;;3.58;1.23;;;;;;;21.06;64.16;102431.00;4973899;28;20189;-49
2022/08/08 08:10:40;;;;;;;3.63;1.48;;;;;;;20.42;65.01;102424.53;4991524;28;20168;-50
2022/08/08 08:13:24;;;;;;;5.10;1.30;;;;;;;20.17;65.75;102432.16;4991182;28;20224;-48
2022/08/08 08:16:04;;;;;;;4.07;1.48;;;;;;;20.04;67.16;102438.34;4990086;28;20185;-48
2022/08/08 08:18:33;;;;;;;5.43;1.40;;;;;;;19.75;67.46;102438.03;4990155;28;20312;-54
2022/08/08 08:21:01;;;;;;;5.22;2.05;;;;;;;19.35;68.80;102442.72;4992148;28;20264;-49
2022/08/08 08:23:27;;;;;;;5.38;1.52;;;;;;;19.22;69.82;102449.69;4993674;28;20246;-48
2022/08/08 08:25:52;;;;;;;4.63;1.55;;;;;;;19.00;70.23;102452.56;4993812;28;20615;-49
2022/08/08 08:28:20;;;;;;;7.22;1.50;;;;;;;18.65;72.19;102444.22;4993763;28;20323;-47
2022/08/08 08:30:45;;;;;;;3.85;1.48;;;;;;;18.59;73.67;102447.25;4990703;28;20177;-49
2022/08/08 08:33:12;;;;;;;2.53;1.20;;;;;;;18.69;72.79;102462.13;4973750;28;20201;-47
2022/08/08 08:35:38;;;;;;;8.52;1.70;;;;;;;18.35;72.41;102443.81;4975663;28;20563;-51
2022/08/08 08:38:04;;;;;;;3.40;1.42;;;;;;;18.58;72.65;102453.59;4975314;28;20169;-51
2022/08/08 08:40:31;;;;;;;5.65;1.50;;;;;;;18.53;73.73;102457.41;4974233;28;20354;-51
2022/08/08 08:42:58;;;;;;;4.05;1.55;;;;;;;18.51;74.66;102450.28;4957708;28;20293;-49
2022/08/08 08:45:25;;;;;;;4.68;1.60;;;;;;;18.49;74.99;102458.50;4981971;28;20248;-52
2022/08/08 08:47:55;;;;;;;2.97;1.45;;;;;;;18.32;75.76;102464.72;4993075;28;20168;-52
2022/08/08 08:50:24;;;;;;;7.70;1.38;;;;;;;18.17;76.28;102459.97;4993191;28;20245;-52
2022/08/08 08:52:52;;;;;;;3.28;1.25;;;;;;;18.23;77.04;102459.66;4993358;28;20205;-47
2022/08/08 08:55:19;;;;;;;4.05;1.20;;;;;;;18.32;76.17;102455.66;4993000;28;20649;-48
2022/08/08 08:57:48;;;;;;;6.25;1.65;;;;;;;18.24;76.55;102456.03;4994286;28;20220;-51
2022/08/08 09:00:14;;;;;;;5.22;1.50;;;;;;;18.19;76.00;102457.16;4993117;28;20198;-49
2022/08/08 09:02:41;;;;;;;4.03;1.70;;;;;;;18.24;75.80;102460.56;4992794;28;20314;-51
2022/08/08 09:05:07;;;;;;;6.00;1.70;;;;;;;18.36;75.99;102461.84;4992893;28;20300;-49
2022/08/08 09:07:35;;;;;;;5.95;1.60;;;;;;;18.48;75.47;102464.88;4992959;28;20594;-49
2022/08/08 09:10:01;;;;;;;3.75;1.40;;;;;;;18.59;75.67;102458.97;4993033;28;20491;-49
2022/08/08 09:12:37;;;;;;;4.63;1.52;;;;;;;18.66;75.13;102463.16;4992780;28;20203;-49
2022/08/08 09:15:04;;;;;;;4.50;1.40;;;;;;;18.70;74.73;102463.91;4992470;28;20240;-52
2022/08/08 09:17:35;;;;;;;5.07;1.20;;;;;;;18.94;73.96;102460.06;4992646;28;20272;-49
2022/08/08 09:20:02;;;;;;;6.45;1.50;;;;;;;18.86;73.85;102467.69;4992865;28;20205;-49
2022/08/08 09:22:28;;;;;;;5.00;1.60;;;;;;;18.96;73.21;102470.88;4992213;28;20265;-49
2022/08/08 09:24:55;;;;;;;5.47;1.60;;;;;;;19.09;73.40;102465.72;4991953;28;20205;-52
2022/08/08 09:27:22;;;;;;;3.80;1.67;;;;;;;18.89;73.39;102470.28;4992521;28;20279;-49
2022/08/08 09:30:03;;;;;;;6.63;1.63;;;;;;;19.03;73.75;102471.44;4992290;28;20174;-51
2022/08/08 09:32:45;;;;;;;4.50;1.50;;;;;;;18.75;73.68;102467.28;4991038;28;20232;-50
2022/08/08 09:35:13;;;;;;;5.93;1.48;;;;;;;19.18;72.64;102467.13;4991697;28;20181;-49
2022/08/08 09:37:49;;;;;;;6.03;1.55;;;;;;;19.32;71.70;102468.19;4992410;28;20182;-50
2022/08/08 09:40:21;;;;;;;3.67;1.38;;;;;;;19.49;72.35;102474.66;4992015;28;20205;-50
2022/08/08 09:42:49;;;;;;;4.50;1.45;;;;;;;19.47;71.01;102460.25;4993447;28;20218;-51
2022/08/08 09:45:40;;;;;;;4.45;1.33;;;;;;;19.38;70.95;102472.47;4993331;28;20183;-50
2022/08/08 09:48:08;;;;;;;2.40;1.30;;;;;;;19.59;71.63;102469.63;4993475;28;20189;-51
2022/08/08 09:50:35;;;;;;;4.57;1.63;;;;;;;19.83;71.05;102471.16;4993564;28;20183;-49
2022/08/08 09:53:03;;;;;;;5.15;1.23;;;;;;;19.73;70.04;102481.59;4992846;28;20205;-53
2022/08/08 09:55:29;;;;;;;3.13;1.50;;;;;;;20.04;70.15;102468.28;4993546;28;20720;-51
2022/08/08 09:58:03;;;;;;;10.18;1.85;;;;;;;19.38;71.11;102469.75;4993168;28;20260;-50
2022/08/08 10:00:31;;;;;;;8.25;1.67;;;;;;;19.05;72.36;102466.84;4993461;28;20548;-51
2022/08/08 10:03:01;;;;;;;6.20;1.75;;;;;;;18.81;72.65;102477.03;4991019;28;20205;-49
2022/08/08 10:05:28;;;;;;;5.57;1.80;;;;;;;18.81;73.19;102477.91;4993498;28;20272;-49
2022/08/08 10:07:54;;;;;;;8.27;1.83;;;;;;;19.16;72.78;102472.63;4993167;28;20232;-52
2022/08/08 10:10:24;;;;;;;3.15;1.55;;;;;;;19.83;70.21;102467.53;4993132;28;20181;-52
2022/08/08 10:12:50;;;;;;;4.07;1.38;;;;;;;20.13;70.30;102471.38;4991524;28;20236;-52
2022/08/08 10:15:15;;;;;;;5.75;1.40;;;;;;;20.13;70.13;102467.78;4992645;28;20220;-49
2022/08/08 10:17:49;;;;;;;6.03;1.40;;;;;;;20.48;68.95;102460.47;4992979;28;20490;-49
2022/08/08 10:20:16;;;;;;;7.63;1.65;;;;;;;20.75;68.10;102459.94;4992774;28;20205;-52
2022/08/08 10:23:04;;;;;;;3.67;1.52;;;;;;;20.62;67.84;102451.59;4992858;28;20291;-50
2022/08/08 10:25:31;;;;;;;6.65;1.50;;;;;;;19.81;68.04;102464.00;4992873;28;20272;-50
2022/08/08 10:28:05;;;;;;;3.30;1.42;;;;;;;19.98;69.00;102466.75;4992378;28;20256;-49
2022/08/08 10:30:31;;;;;;;4.90;1.55;;;;;;;19.82;68.75;102468.50;4993110;28;20178;-49
2022/08/08 10:32:58;;;;;;;5.20;1.50;;;;;;;19.86;69.01;102472.84;4992328;28;20542;-50
2022/08/08 10:35:29;;;;;;;4.18;1.40;;;;;;;19.77;69.76;102471.47;4992983;28;20220;-51
2022/08/08 10:38:01;;;;;;;4.97;1.50;;;;;;;19.56;69.51;102470.66;4976701;28;20190;-50
2022/08/08 10:40:28;;;;;;;6.20;1.70;;;;;;;19.61;70.11;102467.72;4973013;28;20723;-50
2022/08/08 10:43:03;;;;;;;3.63;1.30;;;;;;;19.37;69.83;102459.81;4973015;28;20202;-51
2022/08/08 10:45:29;;;;;;;3.35;1.52;;;;;;;19.43;70.21;102467.66;4973095;28;20169;-48
2022/08/08 10:47:59;;;;;;;3.67;1.85;;;;;;;19.34;70.08;102463.56;4973101;28;20170;-52
2022/08/08 10:50:36;;;;;;;6.85;1.80;;;;;;;19.24;70.07;102466.81;4972930;28;20273;-52
2022/08/08 10:53:10;;;;;;;6.53;1.40;;;;;;;19.23;70.59;102467.78;4972338;28;20709;-50
2022/08/08 10:55:41;;;;;;;7.78;1.83;;;;;;;19.28;71.74;102468.41;4972769;28;20185;-49
2022/08/08 10:58:09;;;;;;;5.07;2.10;;;;;;;19.36;72.21;102463.50;4972551;28;20269;-48
2022/08/08 11:00:43;;;;;;;4.43;1.50;;;;;;;19.26;70.95;102471.25;4970981;28;20216;-49
2022/08/08 11:03:17;;;;;;;5.80;1.83;;;;;;;19.20;72.61;102470.63;4984945;28;20279;-49
2022/08/08 11:05:51;;;;;;;5.57;1.98;;;;;;;19.17;72.05;102463.50;4991837;28;20184;-48
2022/08/08 11:08:22;;;;;;;5.03;1.75;;;;;;;19.17;72.75;102470.78;4991659;28;20773;-51
2022/08/08 11:10:47;;;;;;;5.47;1.50;;;;;;;19.08;73.83;102472.97;4991613;28;20197;-48
2022/08/08 11:13:20;;;;;;;6.03;1.88;;;;;;;19.19;72.93;102472.47;4990959;28;20197;-47
2022/08/08 11:15:46;;;;;;;4.93;1.63;;;;;;;19.31;72.48;102480.03;4990876;28;20249;-50
2022/08/08 11:18:12;;;;;;;5.85;1.60;;;;;;;19.22;72.12;102468.72;4991554;28;20189;-48
2022/08/08 11:20:39;;;;;;;4.07;1.65;;;;;;;19.39;72.47;102476.06;4991561;28;20299;-49
2022/08/08 11:23:06;;;;;;;3.35;1.33;;;;;;;19.09;71.45;102465.72;4990890;28;20692;-50
2022/08/08 11:25:33;;;;;;;7.63;1.90;;;;;;;19.45;71.98;102465.75;4991483;28;20182;-50
2022/08/08 11:28:00;;;;;;;4.95;1.75;;;;;;;19.86;70.52;102461.94;4991036;28;20561;-52
2022/08/08 11:30:31;;;;;;;2.88;1.48;;;;;;;19.93;70.40;102458.81;4991422;28;20538;-51
2022/08/08 11:33:00;;;;;;;5.22;1.65;;;;;;;19.73;69.62;102459.84;4990731;28;20201;-49
2022/08/08 11:35:26;;;;;;;6.15;1.42;;;;;;;20.05;69.12;102467.31;4991405;28;20655;-48
2022/08/08 11:37:52;;;;;;;4.25;1.63;;;;;;;20.44;68.46;102464.31;4991527;28;20169;-50
2022/08/08 11:40:18;;;;;;;5.60;1.38;;;;;;;20.02;68.12;102465.63;4990573;28;20626;-48
2022/08/08 11:42:44;;;;;;;2.97;1.38;;;;;;;19.70;68.72;102468.19;4991421;28;20232;-49
2022/08/08 11:45:11;;;;;;;5.30;1.50;;;;;;;19.73;68.80;102473.44;4990595;28;20181;-51
2022/08/08 11:47:37;;;;;;;4.82;1.45;;;;;;;20.07;67.90;102471.72;4991223;28;20618;-48
2022/08/08 11:50:11;;;;;;;6.53;1.33;;;;;;;19.72;68.28;102468.06;4991373;28;20173;-50
2022/08/08 11:52:37;;;;;;;6.10;1.40;;;;;;;20.07;68.64;102471.72;4990643;28;20201;-48
2022/08/08 11:55:26;;;;;;;5.50;1.63;;;;;;;19.90;67.68;102464.44;4988466;28;20189;-48
2022/08/08 11:58:07;;;;;;;6.00;1.55;;;;;;;19.87;68.10;102469.13;4990699;28;20216;-49
2022/08/08 12:00:33;;;;;;;3.80;1.40;;;;;;;20.22;67.93;102461.84;4990786;28;20723;-48
2022/08/08 12:02:59;;;;;;;5.55;1.48;;;;;;;19.56;67.96;102460.66;4976115;28;20240;-50